createdAt,value
2023-01-04T00:00:05.394Z,101005.50
2023-01-04T00:03:31.573Z,101004.63
2023-01-04T00:06:55.405Z,101008.06
2023-01-04T00:10:22.591Z,101010.66
2023-01-04T00:13:46.864Z,101008.06
2023-01-04T00:17:12.429Z,101008.97
2023-01-04T00:20:36.501Z,101002.94
2023-01-04T00:24:02.805Z,101013.28
2023-01-04T00:27:26.715Z,101021.09
2023-01-04T00:30:51.137Z,101015.06
2023-01-04T00:34:19.969Z,101023.72
2023-01-04T00:37:49.919Z,101027.16
2023-01-04T00:41:49.036Z,101022.88
2023-01-04T00:45:01.957Z,101023.75
2023-01-04T00:48:26.036Z,101019.41
2023-01-04T00:51:51.709Z,101022.03
2023-01-04T00:55:15.452Z,101021.16
2023-01-04T00:58:39.584Z,101018.53
2023-01-04T01:02:09.851Z,101024.56
2023-01-04T01:05:35.919Z,101024.59
2023-01-04T01:09:02.020Z,101037.50
2023-01-04T01:12:26.540Z,101043.53
2023-01-04T01:15:50.823Z,101034.91
2023-01-04T01:19:15.608Z,101035.78
2023-01-04T01:22:39.897Z,101031.44
2023-01-04T01:26:07.189Z,101021.97
2023-01-04T01:29:31.425Z,101026.25
2023-01-04T01:32:59.769Z,101026.28
2023-01-04T01:36:25.481Z,101025.41
2023-01-04T01:39:49.939Z,101018.50
2023-01-04T01:43:20.096Z,101007.28
2023-01-04T01:46:47.073Z,101017.56
2023-01-04T01:50:22.277Z,100996.88
2023-01-04T01:53:49.459Z,101007.22
2023-01-04T01:57:18.354Z,101008.94
2023-01-04T02:00:43.893Z,101008.06
2023-01-04T02:04:09.078Z,101005.50
2023-01-04T02:07:33.519Z,100999.50
2023-01-04T02:10:57.710Z,101005.50
2023-01-04T02:14:29.177Z,101008.06
2023-01-04T02:18:00.797Z,101013.25
2023-01-04T02:21:32.962Z,101008.91
2023-01-04T02:25:17.857Z,101012.31
2023-01-04T02:28:54.678Z,101006.25
2023-01-04T02:32:27.615Z,100997.63
2023-01-04T02:36:00.248Z,100990.72
2023-01-04T02:39:36.012Z,100978.69
2023-01-04T02:43:25.782Z,100981.25
2023-01-04T02:46:52.766Z,100972.63
2023-01-04T02:50:34.238Z,100985.56
2023-01-04T02:53:59.754Z,100976.94
2023-01-04T02:57:42.880Z,100977.81
2023-01-04T03:01:34.163Z,100965.75
2023-01-04T03:05:21.116Z,100976.13
2023-01-04T03:08:56.009Z,100962.34
2023-01-04T03:12:33.803Z,100956.28
2023-01-04T03:16:03.129Z,100950.25
2023-01-04T03:19:42.616Z,100942.47
2023-01-04T03:23:26.959Z,100936.41
2023-01-04T03:27:15.538Z,100944.13
2023-01-04T03:31:05.431Z,100945.84
2023-01-04T03:34:47.674Z,100944.97
2023-01-04T03:38:34.676Z,100928.63
2023-01-04T03:42:23.367Z,100935.50
2023-01-04T03:46:10.316Z,100929.50
2023-01-04T03:49:41.447Z,100928.59
2023-01-04T03:53:06.969Z,100915.69
2023-01-04T03:56:33.099Z,100913.97
2023-01-04T04:00:04.070Z,100904.53
2023-01-04T04:03:28.492Z,100914.84
2023-01-04T04:07:09.834Z,100911.41
2023-01-04T04:10:34.061Z,100906.25
2023-01-04T04:13:57.742Z,100907.13
2023-01-04T04:17:23.373Z,100904.53
2023-01-04T04:20:47.121Z,100895.09
2023-01-04T04:24:17.744Z,100895.94
2023-01-04T04:27:41.579Z,100900.22
2023-01-04T04:31:06.291Z,100896.81
2023-01-04T04:34:31.297Z,100894.22
2023-01-04T04:37:57.538Z,100889.06
2023-01-04T04:41:38.548Z,100889.03
2023-01-04T04:45:02.700Z,100891.59
2023-01-04T04:48:26.560Z,100886.41
2023-01-04T04:51:53.511Z,100889.00
2023-01-04T04:55:17.361Z,100898.44
2023-01-04T04:58:41.973Z,100890.69
2023-01-04T05:02:05.997Z,100892.41
2023-01-04T05:05:30.650Z,100887.22
2023-01-04T05:08:56.030Z,100883.78
2023-01-04T05:12:37.471Z,100876.88
2023-01-04T05:16:01.218Z,100881.16
2023-01-04T05:19:25.490Z,100877.72
2023-01-04T05:22:49.094Z,100876.84
2023-01-04T05:26:28.827Z,100851.91
2023-01-04T05:30:13.163Z,100859.63
2023-01-04T05:33:37.439Z,100856.19
2023-01-04T05:37:02.463Z,100854.44
2023-01-04T05:40:26.538Z,100857.88
2023-01-04T05:43:51.917Z,100859.56
2023-01-04T05:47:18.242Z,100846.66
2023-01-04T05:50:42.218Z,100850.94
2023-01-04T05:54:06.517Z,100838.00
2023-01-04T05:57:30.671Z,100840.63
2023-01-04T06:00:57.296Z,100824.28
2023-01-04T06:04:21.678Z,100820.81
2023-01-04T06:07:45.969Z,100818.25
2023-01-04T06:11:09.962Z,100818.28
2023-01-04T06:14:34.458Z,100811.41
2023-01-04T06:17:59.882Z,100799.34
2023-01-04T06:21:25.642Z,100797.63
2023-01-04T06:24:49.535Z,100795.91
2023-01-04T06:28:13.693Z,100781.28
2023-01-04T06:31:37.916Z,100788.19
2023-01-04T06:35:03.576Z,100781.34
2023-01-04T06:38:27.465Z,100780.50
2023-01-04T06:41:51.825Z,100780.50
2023-01-04T06:45:16.677Z,100773.63
2023-01-04T06:48:41.277Z,100775.34
2023-01-04T06:52:06.500Z,100766.75
2023-01-04T06:55:30.467Z,100762.47
2023-01-04T06:58:54.516Z,100767.63
2023-01-04T07:02:18.970Z,100773.69
2023-01-04T07:05:43.218Z,100785.75
2023-01-04T07:09:09.085Z,100805.56
2023-01-04T07:12:33.566Z,100805.56
2023-01-04T07:15:57.737Z,100815.03
2023-01-04T07:19:21.746Z,100809.03
2023-01-04T07:22:46.315Z,100805.59
2023-01-04T07:26:12.022Z,100793.53
2023-01-04T07:29:36.129Z,100780.66
2023-01-04T07:33:00.054Z,100779.75
2023-01-04T07:36:23.929Z,100788.38
2023-01-04T07:39:48.766Z,100777.16
2023-01-04T07:43:14.530Z,100771.97
2023-01-04T07:46:39.092Z,100764.16
2023-01-04T07:50:03.324Z,100753.81
2023-01-04T07:53:29.845Z,100751.13
2023-01-04T07:56:53.759Z,100757.91
2023-01-04T08:00:20.017Z,100751.66
2023-01-04T08:03:47.471Z,100766.13
2023-01-04T08:07:11.007Z,100766.78
2023-01-04T08:10:36.894Z,100746.66
2023-01-04T08:14:00.548Z,100732.56
2023-01-04T08:17:26.243Z,100732.31
2023-01-04T08:20:58.348Z,100743.38
2023-01-04T08:24:23.635Z,100746.69
2023-01-04T08:27:47.418Z,100737.06
2023-01-04T08:31:15.337Z,100721.38
2023-01-04T08:34:40.650Z,100728.06
2023-01-04T08:38:36.992Z,100720.16
2023-01-04T08:42:00.393Z,100714.88
2023-01-04T08:45:27.205Z,100718.19
2023-01-04T08:48:53.164Z,100703.94
2023-01-04T08:52:18.708Z,100706.28
2023-01-04T08:55:43.880Z,100700.22
2023-01-04T08:59:08.440Z,100693.34
2023-01-04T09:02:32.857Z,100684.69
2023-01-04T09:06:03.900Z,100685.47
2023-01-04T09:09:30.408Z,100667.94
2023-01-04T09:12:55.063Z,100669.97
2023-01-04T09:16:21.144Z,100663.81
2023-01-04T09:19:45.407Z,100659.78
2023-01-04T09:23:09.192Z,100652.56
2023-01-04T09:26:34.768Z,100643.63
2023-01-04T09:29:58.608Z,100635.63
2023-01-04T09:33:35.830Z,100631.94
2023-01-04T09:37:07.272Z,100622.22
2023-01-04T09:40:36.369Z,100614.50
2023-01-04T09:44:05.160Z,100601.53
2023-01-04T09:47:39.757Z,100599.72
2023-01-04T09:51:08.288Z,100582.25
2023-01-04T09:54:43.873Z,100588.81
2023-01-04T09:58:19.398Z,100573.50
2023-01-04T10:01:50.107Z,100573.75
2023-01-04T10:05:19.546Z,100567.00
2023-01-04T10:08:44.316Z,100552.00
2023-01-04T10:12:22.593Z,100536.97
2023-01-04T10:15:54.199Z,100529.78
2023-01-04T10:23:32.367Z,100532.13
2023-01-04T10:27:05.860Z,100524.13
2023-01-04T10:30:38.354Z,100503.13
2023-01-04T10:34:08.124Z,100484.56
2023-01-04T10:37:37.349Z,100466.72
2023-01-04T10:41:07.000Z,100441.25
2023-01-04T10:44:41.857Z,100440.56
2023-01-04T10:48:13.189Z,100424.66
2023-01-04T10:51:43.901Z,100407.06
2023-01-04T10:55:14.133Z,100393.69
2023-01-04T10:58:45.855Z,100380.22
2023-01-04T11:02:20.105Z,100372.88
2023-01-04T11:05:50.920Z,100359.59
2023-01-04T11:09:25.057Z,100360.13
2023-01-04T11:12:51.238Z,100352.00
2023-01-04T11:16:15.251Z,100347.53
2023-01-04T11:19:40.800Z,100326.28
2023-01-04T11:23:09.361Z,100321.56
2023-01-04T11:26:39.538Z,100324.03
2023-01-04T11:30:13.084Z,100317.16
2023-01-04T11:33:53.052Z,100298.94
2023-01-04T11:37:33.806Z,100278.19
2023-01-04T11:41:01.044Z,100260.31
2023-01-04T11:44:25.879Z,100255.16
2023-01-04T11:47:53.995Z,100248.56
2023-01-04T11:51:21.625Z,100228.66
2023-01-04T11:54:45.641Z,100208.06
2023-01-04T11:58:13.446Z,100192.47
2023-01-04T12:01:39.831Z,100189.75
2023-01-04T12:05:24.523Z,100193.97
2023-01-04T12:08:55.949Z,100183.56
2023-01-04T12:12:20.132Z,100177.78
2023-01-04T12:15:55.588Z,100175.22
2023-01-04T12:19:22.991Z,100167.34
2023-01-04T12:22:49.454Z,100152.38
2023-01-04T12:26:14.305Z,100138.25
2023-01-04T12:29:57.194Z,100124.31
2023-01-04T12:33:40.837Z,100139.91
2023-01-04T12:37:18.286Z,100125.78
2023-01-04T12:40:56.500Z,100115.50
2023-01-04T12:45:01.957Z,100112.75
2023-01-04T12:49:01.148Z,100094.50
2023-01-04T12:53:02.367Z,100099.13
2023-01-04T12:57:07.961Z,100068.72
2023-01-04T13:01:05.463Z,100050.41
2023-01-04T13:04:40.507Z,100050.56
2023-01-04T13:08:10.445Z,100054.97
2023-01-04T13:12:15.406Z,100036.53
2023-01-04T13:15:54.035Z,100021.44
2023-01-04T13:19:23.180Z,100015.34
2023-01-04T13:22:53.301Z,99990.84
2023-01-04T13:26:40.326Z,99975.38
2023-01-04T13:30:05.143Z,99972.13
2023-01-04T13:33:30.575Z,99966.13
2023-01-04T13:36:57.138Z,99944.25
2023-01-04T13:40:33.117Z,99941.03
2023-01-04T13:44:09.123Z,99936.06
2023-01-04T13:47:37.226Z,99928.16
2023-01-04T13:51:04.873Z,99931.88
2023-01-04T13:54:33.268Z,99936.19
2023-01-04T13:58:01.328Z,99922.53
2023-01-04T14:01:28.162Z,99929.53
2023-01-04T14:04:52.797Z,99920.19
2023-01-04T14:08:22.999Z,99906.13
2023-01-04T14:15:45.423Z,99887.63
2023-01-04T14:19:43.677Z,99885.91
2023-01-04T14:23:27.588Z,99871.78
2023-01-04T14:26:51.731Z,99869.31
2023-01-04T14:30:24.671Z,99856.22
2023-01-04T14:33:51.370Z,99858.63
2023-01-04T14:37:15.440Z,99828.22
2023-01-04T14:40:42.467Z,99792.50
2023-01-04T14:44:15.039Z,99780.06
2023-01-04T14:47:39.125Z,99789.38
2023-01-04T14:51:03.147Z,99772.63
2023-01-04T14:54:30.324Z,99770.31
2023-01-04T14:57:55.327Z,99772.41
2023-01-04T15:01:19.864Z,99759.63
2023-01-04T15:04:44.213Z,99742.19
2023-01-04T15:08:08.623Z,99729.31
2023-01-04T15:11:32.790Z,99726.41
2023-01-04T15:14:58.273Z,99715.97
2023-01-04T15:18:21.956Z,99698.47
2023-01-04T15:21:45.958Z,99708.06
2023-01-04T15:25:11.677Z,99710.38
2023-01-04T15:28:35.849Z,99695.41
2023-01-04T15:32:01.773Z,99691.59
2023-01-04T15:35:25.705Z,99687.84
2023-01-04T15:38:49.862Z,99670.88
2023-01-04T15:42:31.445Z,99662.59
2023-01-04T15:45:55.389Z,99648.59
2023-01-04T15:49:21.031Z,99643.16
2023-01-04T15:52:50.309Z,99633.91
2023-01-04T15:56:15.233Z,99625.44
2023-01-04T15:59:39.099Z,99617.91
2023-01-04T16:03:03.279Z,99609.31
2023-01-04T16:06:28.803Z,99606.88
2023-01-04T16:09:53.037Z,99601.84
2023-01-04T16:13:17.084Z,99595.88
2023-01-04T16:16:41.483Z,99581.72
2023-01-04T16:20:06.205Z,99576.50
2023-01-04T16:23:31.721Z,99566.88
2023-01-04T16:26:55.576Z,99559.97
2023-01-04T16:30:23.328Z,99564.44
2023-01-04T16:33:57.741Z,99540.91
2023-01-04T16:37:22.076Z,99527.72
2023-01-04T16:40:57.399Z,99520.81
2023-01-04T16:44:21.507Z,99508.69
2023-01-04T16:47:46.349Z,99497.44
2023-01-04T16:51:12.522Z,99480.09
2023-01-04T16:54:36.585Z,99471.22
2023-01-04T16:58:02.121Z,99471.91
2023-01-04T17:01:30.443Z,99470.31
2023-01-04T17:04:57.211Z,99462.47
2023-01-04T17:08:26.874Z,99463.16
2023-01-04T17:15:47.473Z,99464.84
2023-01-04T17:19:11.654Z,99449.31
2023-01-04T17:22:35.839Z,99446.69
2023-01-04T17:26:04.075Z,99446.47
2023-01-04T17:29:27.911Z,99446.31
2023-01-04T17:32:53.526Z,99422.59
2023-01-04T17:36:19.205Z,99424.53
2023-01-04T17:39:43.086Z,99424.47
2023-01-04T17:43:07.650Z,99402.53
2023-01-04T17:46:34.984Z,99401.56
2023-01-04T17:50:00.367Z,99392.75
2023-01-04T17:53:24.410Z,99379.63
2023-01-04T17:56:48.372Z,99369.63
2023-01-04T18:00:14.997Z,99366.16
2023-01-04T18:03:40.196Z,99358.13
2023-01-04T18:07:08.609Z,99342.38
2023-01-04T18:10:57.137Z,99337.81
2023-01-04T18:14:16.812Z,99325.66
2023-01-04T18:17:40.547Z,99312.50
2023-01-04T18:21:27.115Z,99316.03
2023-01-04T18:24:53.578Z,99314.34
2023-01-04T18:28:18.305Z,99303.88
2023-01-04T18:31:42.339Z,99300.41
2023-01-04T18:35:07.259Z,99288.97
2023-01-04T18:38:30.845Z,99276.47
2023-01-04T18:41:56.236Z,99267.63
2023-01-04T18:45:20.723Z,99259.50
2023-01-04T18:48:51.608Z,99246.34
2023-01-04T18:52:15.518Z,99248.91
2023-01-04T18:55:40.110Z,99245.44
2023-01-04T18:59:05.345Z,99234.78
2023-01-04T19:02:29.716Z,99227.53
2023-01-04T19:05:53.477Z,99221.34
2023-01-04T19:09:17.470Z,99208.00
2023-01-04T19:12:42.008Z,99198.31
2023-01-04T19:16:10.463Z,99191.38
2023-01-04T19:19:35.553Z,99201.66
2023-01-04T19:22:59.676Z,99178.13
2023-01-04T19:26:24.265Z,99159.72
2023-01-04T19:29:48.240Z,99179.53
2023-01-04T19:33:13.603Z,99167.13
2023-01-04T19:36:38.185Z,99159.94
2023-01-04T19:40:02.222Z,99166.84
2023-01-04T19:43:26.163Z,99142.44
2023-01-04T19:46:50.090Z,99162.47
2023-01-04T19:50:15.528Z,99158.66
2023-01-04T19:53:39.676Z,99148.84
2023-01-04T19:57:03.684Z,99147.63
2023-01-04T20:00:27.651Z,99143.34
2023-01-04T20:03:51.998Z,99129.09
2023-01-04T20:07:17.410Z,99120.97
2023-01-04T20:10:41.826Z,99126.22
2023-01-04T20:14:10.200Z,99129.34
2023-01-04T20:17:33.981Z,99126.78
2023-01-04T20:20:57.823Z,99113.72
2023-01-04T20:24:23.720Z,99118.09
2023-01-04T20:27:49.308Z,99113.50
2023-01-04T20:31:17.285Z,99112.66
2023-01-04T20:34:41.115Z,99103.81
2023-01-04T20:38:05.170Z,99106.31
2023-01-04T20:41:34.275Z,99097.53
2023-01-04T20:44:58.454Z,99086.88
2023-01-04T20:48:22.362Z,99093.78
2023-01-04T20:51:46.872Z,99074.41
2023-01-04T20:55:17.113Z,99083.19
2023-01-04T20:58:43.194Z,99077.16
2023-01-04T21:02:07.172Z,99070.09
2023-01-04T21:05:31.749Z,99065.44
2023-01-04T21:08:56.579Z,99065.34
2023-01-04T21:12:20.924Z,99057.50
2023-01-04T21:15:46.195Z,99057.50
2023-01-04T21:19:10.511Z,99046.72
2023-01-04T21:22:35.342Z,99050.94
2023-01-04T21:25:59.461Z,99035.22
2023-01-04T21:29:23.117Z,99028.09
2023-01-04T21:32:48.759Z,99033.13
2023-01-04T21:36:14.492Z,99012.81
2023-01-04T21:39:38.744Z,99015.44
2023-01-04T21:43:02.458Z,99008.34
2023-01-04T21:46:27.638Z,99001.03
2023-01-04T21:49:53.251Z,99007.09
2023-01-04T21:53:17.217Z,98993.91
2023-01-04T21:56:40.841Z,98997.38
2023-01-04T22:00:06.633Z,98977.13
2023-01-04T22:03:33.350Z,98989.94
2023-01-04T22:06:59.492Z,98991.66
2023-01-04T22:10:23.572Z,98988.81
2023-01-04T22:13:50.386Z,98959.78
2023-01-04T22:17:14.551Z,98962.31
2023-01-04T22:20:38.943Z,98950.69
2023-01-04T22:24:04.010Z,98964.66
2023-01-04T22:27:28.146Z,98959.91
2023-01-04T22:30:52.295Z,98929.09
2023-01-04T22:34:17.125Z,98928.94
2023-01-04T22:37:40.633Z,98924.50
2023-01-04T22:41:09.363Z,98925.88
2023-01-04T22:44:33.348Z,98921.38
2023-01-04T22:47:57.405Z,98907.31
2023-01-04T22:51:22.674Z,98905.97
2023-01-04T22:54:49.158Z,98904.75
2023-01-04T22:58:14.391Z,98894.47
2023-01-04T23:01:38.590Z,98873.47
2023-01-04T23:05:02.327Z,98874.22
2023-01-04T23:08:29.107Z,98869.41
2023-01-04T23:11:53.194Z,98862.88
2023-01-04T23:15:19.402Z,98854.81
2023-01-04T23:18:43.380Z,98847.56
2023-01-04T23:22:07.761Z,98849.13
2023-01-04T23:25:31.454Z,98837.47
2023-01-04T23:28:56.007Z,98842.63
2023-01-04T23:32:21.191Z,98831.16
2023-01-04T23:35:45.182Z,98832.00
2023-01-04T23:39:11.238Z,98822.03
2023-01-04T23:42:39.820Z,98807.97
2023-01-04T23:46:07.615Z,98807.00
2023-01-04T23:49:34.756Z,98800.91
2023-01-04T23:52:58.633Z,98797.47
2023-01-04T23:56:22.353Z,98791.78
2023-01-04T23:59:45.875Z,98793.47
